Weather reports worldwide

Advertisment
Ancona, Italy (16190): temperature & dewpoint: 16.01.2019 04:00:00 - 22.01.2019 04:00:00 (CET)Ancona, Italy (16190): reduced air pressure: 16.01.2019 04:00:00 - 22.01.2019 04:00:00 (CET)Ancona, Italy (16190): precipitation: 16.01.2019 04:00:00 - 22.01.2019 04:00:00 (CET)
Date & Time tt [°C] td [°C] ppp [hPa] rr [mm]
22.01.2019 04:00:00 - - - -
22.01.2019 03:00:00 3,6 3,6 1006,7 -
22.01.2019 02:00:00 3,0 3,0 1007,2 -
22.01.2019 01:00:00 2,8 2,8 1008,0 0,0
22.01.2019 00:00:00 2,8 2,8 1008,5 -
21.01.2019 23:00:00 2,8 2,8 1008,7 -
21.01.2019 22:00:00 2,6 2,6 1009,0 -
21.01.2019 21:00:00 2,4 2,4 1009,2 -
21.01.2019 20:00:00 2,4 2,4 1009,4 -
21.01.2019 19:00:00 2,4 2,4 1009,6 0,0
21.01.2019 18:00:00 2,4 2,4 1009,5 -
21.01.2019 17:00:00 2,5 2,5 1009,5 -
21.01.2019 16:00:00 2,8 2,8 1010,0 -
21.01.2019 15:00:00 2,1 2,1 1010,0 -
21.01.2019 14:00:00 1,9 1,9 1010,3 -
21.01.2019 13:00:00 2,1 2,1 1010,8 0,0
21.01.2019 12:00:00 2,5 2,5 1011,1 -
21.01.2019 11:00:00 2,2 2,2 1011,7 -
21.01.2019 10:00:00 2,0 2,0 1011,3 -
21.01.2019 09:00:00 2,1 2,1 1011,1 -
21.01.2019 08:00:00 2,2 2,2 1011,0 -
21.01.2019 07:00:00 2,4 2,4 1010,8 0,0
21.01.2019 06:00:00 3,0 3,0 1010,4 -
21.01.2019 05:00:00 3,2 3,2 1010,5 -
21.01.2019 04:00:00 3,5 3,5 1010,7 -
21.01.2019 03:00:00 3,5 3,5 1010,9 -
21.01.2019 02:00:00 3,5 3,5 1011,1 -
21.01.2019 01:00:00 3,7 3,6 1011,3 0,0
21.01.2019 00:00:00 3,8 3,5 1011,4 -
20.01.2019 23:00:00 3,9 3,3 1011,1 -
20.01.2019 22:00:00 4,2 3,3 1010,7 -
20.01.2019 21:00:00 4,5 3,5 1010,7 -
20.01.2019 20:00:00 4,4 3,5 1010,6 -
20.01.2019 19:00:00 4,6 3,7 1010,6 -
20.01.2019 18:00:00 4,7 3,8 1010,3 -
20.01.2019 17:00:00 4,9 3,8 1010,1 -
20.01.2019 16:00:00 4,8 3,7 1010,0 -
20.01.2019 15:00:00 5,0 3,3 1010,0 -
20.01.2019 14:00:00 5,4 3,7 1010,1 -
20.01.2019 13:00:00 5,0 2,7 1010,4 0,0
20.01.2019 12:00:00 4,9 2,7 1010,7 -
20.01.2019 11:00:00 4,8 2,6 1011,0 -
20.01.2019 10:00:00 4,2 2,5 1010,7 -
20.01.2019 09:00:00 3,7 2,2 1010,4 -
20.01.2019 08:00:00 3,7 2,3 1010,0 -
20.01.2019 07:00:00 3,6 2,4 1009,8 0,0
20.01.2019 06:00:00 3,6 2,6 1009,8 -
20.01.2019 05:00:00 3,6 2,6 1009,7 -
20.01.2019 04:00:00 3,5 2,6 1009,9 -
20.01.2019 03:00:00 3,5 2,6 1010,2 -
20.01.2019 02:00:00 3,6 2,9 1010,3 -
20.01.2019 01:00:00 3,8 3,2 1010,4 0,0
20.01.2019 00:00:00 3,7 3,4 1010,7 -
19.01.2019 23:00:00 3,6 3,6 1010,6 -
19.01.2019 22:00:00 3,5 3,5 1010,5 -
19.01.2019 21:00:00 3,7 3,7 1010,5 -
19.01.2019 20:00:00 4,2 4,1 1010,4 -
19.01.2019 19:00:00 5,0 4,9 1010,1 0,0
19.01.2019 18:00:00 5,2 5,1 1009,5 -
19.01.2019 17:00:00 5,0 4,7 1009,4 -
19.01.2019 16:00:00 5,1 4,8 1009,5 -
19.01.2019 15:00:00 5,4 4,8 1009,7 -
19.01.2019 14:00:00 6,3 5,7 1009,7 -
19.01.2019 13:00:00 6,0 5,1 1010,3 0,0
19.01.2019 12:00:00 7,1 5,9 1010,4 -
19.01.2019 11:00:00 7,4 6,5 1010,9 -
19.01.2019 10:00:00 6,5 6,2 1010,5 -
19.01.2019 09:00:00 5,7 5,7 1010,2 -
19.01.2019 08:00:00 4,7 4,6 1010,2 -
19.01.2019 07:00:00 4,5 4,4 1010,1 0,0
19.01.2019 06:00:00 4,5 4,2 1010,0 -
19.01.2019 05:00:00 4,8 4,4 1010,1 -
19.01.2019 04:00:00 5,0 4,4 1010,0 -
19.01.2019 03:00:00 5,5 4,8 1010,6 -
19.01.2019 02:00:00 6,1 5,2 1010,5 -
19.01.2019 01:00:00 6,1 4,9 1010,4 0,0
19.01.2019 00:00:00 6,5 5,1 1010,6 -
18.01.2019 23:00:00 6,6 5,7 1010,5 -
18.01.2019 22:00:00 6,7 6,1 1010,4 -
18.01.2019 21:00:00 6,6 6,0 1010,1 -
18.01.2019 20:00:00 6,6 5,8 1010,3 -
18.01.2019 19:00:00 7,2 6,3 1009,4 0,0
18.01.2019 18:00:00 6,8 6,7 1008,7 -
18.01.2019 17:00:00 6,8 6,8 1008,6 -
18.01.2019 16:00:00 6,2 6,2 1008,8 -
18.01.2019 15:00:00 5,9 5,8 1008,5 -
18.01.2019 14:00:00 7,0 6,9 1007,6 -
18.01.2019 13:00:00 6,2 5,6 1007,5 0,0
18.01.2019 12:00:00 6,3 5,4 1007,6 -
18.01.2019 11:00:00 6,9 5,4 1007,8 -
18.01.2019 10:00:00 10,4 4,3 1006,8 -
18.01.2019 09:00:00 10,2 4,1 1006,1 -
18.01.2019 08:00:00 10,0 3,9 1005,7 -
18.01.2019 07:00:00 9,3 3,4 1005,2 0,0
18.01.2019 06:00:00 10,0 4,1 1004,8 -
18.01.2019 05:00:00 9,1 3,2 1004,8 -
18.01.2019 04:00:00 9,1 4,1 1005,5 -
18.01.2019 03:00:00 9,4 2,2 1006,0 -
18.01.2019 02:00:00 9,6 2,4 1006,2 -
18.01.2019 01:00:00 10,4 3,1 1006,6 0,0
18.01.2019 00:00:00 9,8 4,7 1007,3 -
17.01.2019 23:00:00 9,3 2,8 1007,6 -
17.01.2019 22:00:00 10,1 4,8 1007,7 -
17.01.2019 21:00:00 9,7 4,6 1008,0 -
17.01.2019 20:00:00 9,6 2,1 1008,2 -
17.01.2019 19:00:00 9,8 2,3 1008,4 0,0
17.01.2019 18:00:00 10,3 2,8 1008,4 -
17.01.2019 17:00:00 10,6 2,1 1008,7 -
17.01.2019 16:00:00 10,7 3,2 1009,1 -
17.01.2019 15:00:00 10,9 3,8 1009,4 -
17.01.2019 14:00:00 11,0 3,7 1010,0 -
17.01.2019 13:00:00 11,6 2,8 1010,8 0,0
17.01.2019 12:00:00 12,7 1,9 1011,7 -
17.01.2019 11:00:00 11,5 1,9 1012,4 -
17.01.2019 10:00:00 10,1 0,0 1012,6 -
17.01.2019 09:00:00 8,8 -0,4 1012,5 -
17.01.2019 08:00:00 8,7 -2,4 1012,6 -
17.01.2019 07:00:00 9,0 -2,1 1012,8 0,0
17.01.2019 06:00:00 9,5 -1,7 1013,1 -
17.01.2019 05:00:00 8,9 0,3 1013,6 -
17.01.2019 04:00:00 8,2 1,0 1014,4 -
17.01.2019 03:00:00 7,1 0,4 1015,3 -
17.01.2019 02:00:00 7,6 0,9 1015,1 -
17.01.2019 01:00:00 7,4 1,2 1015,3 0,0
17.01.2019 00:00:00 7,5 1,1 1015,6 -
16.01.2019 23:00:00 8,3 1,1 1015,6 -
16.01.2019 22:00:00 8,7 2,0 1015,5 -
16.01.2019 21:00:00 9,1 1,9 1015,2 -
16.01.2019 20:00:00 9,4 1,7 1015,0 -
16.01.2019 19:00:00 10,7 -0,3 1015,0 0,0
16.01.2019 18:00:00 11,2 -0,7 1015,1 -
16.01.2019 17:00:00 11,7 -0,3 1014,9 -
16.01.2019 16:00:00 11,7 -0,3 1014,8 -
16.01.2019 15:00:00 14,4 0,5 1014,6 -
16.01.2019 14:00:00 15,3 -0,2 1014,7 -
16.01.2019 13:00:00 14,9 -1,8 1015,4 0,0
16.01.2019 12:00:00 14,3 -4,1 1015,7 -
16.01.2019 11:00:00 13,0 -2,2 1016,4 -
16.01.2019 10:00:00 11,1 -1,8 1016,5 -
16.01.2019 09:00:00 9,5 -3,2 1016,2 -
16.01.2019 08:00:00 7,8 -3,5 1015,8 -
16.01.2019 07:00:00 8,0 -3,3 1015,6 0,0
16.01.2019 06:00:00 7,9 -3,7 1015,3 -
16.01.2019 05:00:00 7,7 -3,9 1015,4 -
16.01.2019 04:00:00 7,9 -4,0 1015,5 -

tt = temperature
td = dewpoint
ppp = reduced air pressure
rr = precipitation

Next stations